sensor_id;sensor_type;location;lat;lon;timestamp;P1;durP1;ratioP1;P2;durP2;ratioP2
4359;SDS011;2193;47.980;7.660;2022-11-20T00:02:12;11.10;;;7.43;;
4359;SDS011;2193;47.980;7.660;2022-11-20T00:04:38;15.57;;;6.73;;
4359;SDS011;2193;47.980;7.660;2022-11-20T00:07:04;10.65;;;7.13;;
4359;SDS011;2193;47.980;7.660;2022-11-20T00:09:29;10.10;;;7.10;;
4359;SDS011;2193;47.980;7.660;2022-11-20T00:11:54;11.30;;;7.40;;
4359;SDS011;2193;47.980;7.660;2022-11-20T00:14:19;10.77;;;7.90;;
4359;SDS011;2193;47.980;7.660;2022-11-20T00:16:45;10.10;;;6.93;;
4359;SDS011;2193;47.980;7.660;2022-11-20T00:19:10;12.83;;;7.80;;
4359;SDS011;2193;47.980;7.660;2022-11-20T00:21:35;13.77;;;8.50;;
4359;SDS011;2193;47.980;7.660;2022-11-20T00:24:00;12.00;;;7.73;;
4359;SDS011;2193;47.980;7.660;2022-11-20T00:26:26;9.50;;;7.30;;
4359;SDS011;2193;47.980;7.660;2022-11-20T00:28:55;12.27;;;7.57;;
4359;SDS011;2193;47.980;7.660;2022-11-20T00:31:21;9.98;;;6.55;;
4359;SDS011;2193;47.980;7.660;2022-11-20T00:33:47;9.50;;;7.43;;
4359;SDS011;2193;47.980;7.660;2022-11-20T00:36:13;9.30;;;7.43;;
4359;SDS011;2193;47.980;7.660;2022-11-20T00:38:39;12.35;;;7.07;;
4359;SDS011;2193;47.980;7.660;2022-11-20T00:41:05;12.23;;;7.83;;
4359;SDS011;2193;47.980;7.660;2022-11-20T00:43:31;11.20;;;7.45;;
4359;SDS011;2193;47.980;7.660;2022-11-20T00:46:00;8.87;;;7.20;;
4359;SDS011;2193;47.980;7.660;2022-11-20T00:48:25;15.98;;;7.68;;
4359;SDS011;2193;47.980;7.660;2022-11-20T00:50:51;11.53;;;7.87;;
4359;SDS011;2193;47.980;7.660;2022-11-20T00:53:16;12.63;;;7.70;;
4359;SDS011;2193;47.980;7.660;2022-11-20T00:55:41;11.10;;;7.10;;
4359;SDS011;2193;47.980;7.660;2022-11-20T00:58:06;14.00;;;8.60;;
4359;SDS011;2193;47.980;7.660;2022-11-20T01:00:32;10.83;;;7.37;;
4359;SDS011;2193;47.980;7.660;2022-11-20T01:02:57;13.10;;;7.33;;
4359;SDS011;2193;47.980;7.660;2022-11-20T01:05:22;12.57;;;7.50;;
4359;SDS011;2193;47.980;7.660;2022-11-20T01:07:47;15.40;;;7.53;;
4359;SDS011;2193;47.980;7.660;2022-11-20T01:10:12;10.70;;;7.60;;
4359;SDS011;2193;47.980;7.660;2022-11-20T01:12:38;10.07;;;7.40;;
4359;SDS011;2193;47.980;7.660;2022-11-20T01:15:03;14.07;;;7.77;;
4359;SDS011;2193;47.980;7.660;2022-11-20T01:17:28;13.40;;;7.70;;
4359;SDS011;2193;47.980;7.660;2022-11-20T01:19:53;16.03;;;7.93;;
4359;SDS011;2193;47.980;7.660;2022-11-20T01:22:18;13.93;;;8.43;;
4359;SDS011;2193;47.980;7.660;2022-11-20T01:24:44;11.77;;;8.10;;
4359;SDS011;2193;47.980;7.660;2022-11-20T01:27:09;10.00;;;7.67;;
4359;SDS011;2193;47.980;7.660;2022-11-20T01:29:34;10.20;;;6.90;;
4359;SDS011;2193;47.980;7.660;2022-11-20T01:31:59;11.80;;;7.20;;
4359;SDS011;2193;47.980;7.660;2022-11-20T01:34:24;10.97;;;7.90;;
4359;SDS011;2193;47.980;7.660;2022-11-20T01:36:50;11.40;;;7.50;;
4359;SDS011;2193;47.980;7.660;2022-11-20T01:39:20;10.15;;;7.03;;
4359;SDS011;2193;47.980;7.660;2022-11-20T01:41:46;9.20;;;6.90;;
4359;SDS011;2193;47.980;7.660;2022-11-20T01:47:37;10.02;;;6.88;;
4359;SDS011;2193;47.980;7.660;2022-11-20T01:52:30;9.07;;;6.17;;
4359;SDS011;2193;47.980;7.660;2022-11-20T01:55:01;10.45;;;7.38;;
4359;SDS011;2193;47.980;7.660;2022-11-20T01:57:28;8.95;;;6.35;;
4359;SDS011;2193;47.980;7.660;2022-11-20T01:59:57;10.48;;;6.97;;
4359;SDS011;2193;47.980;7.660;2022-11-20T02:02:24;13.32;;;7.18;;
4359;SDS011;2193;47.980;7.660;2022-11-20T02:04:49;8.90;;;6.73;;
4359;SDS011;2193;47.980;7.660;2022-11-20T02:07:16;10.18;;;7.15;;
4359;SDS011;2193;47.980;7.660;2022-11-20T02:09:42;8.23;;;6.33;;
4359;SDS011;2193;47.980;7.660;2022-11-20T02:12:07;7.40;;;5.90;;
4359;SDS011;2193;47.980;7.660;2022-11-20T02:14:52;10.40;;;7.10;;
4359;SDS011;2193;47.980;7.660;2022-11-20T02:17:17;14.50;;;6.73;;
4359;SDS011;2193;47.980;7.660;2022-11-20T02:19:43;10.30;;;6.57;;
4359;SDS011;2193;47.980;7.660;2022-11-20T02:22:14;10.07;;;7.50;;
4359;SDS011;2193;47.980;7.660;2022-11-20T02:24:41;11.50;;;6.85;;
4359;SDS011;2193;47.980;7.660;2022-11-20T02:27:09;9.23;;;6.60;;
4359;SDS011;2193;47.980;7.660;2022-11-20T02:29:39;14.50;;;7.47;;
4359;SDS011;2193;47.980;7.660;2022-11-20T02:32:17;12.75;;;6.85;;
4359;SDS011;2193;47.980;7.660;2022-11-20T02:34:42;10.52;;;6.75;;
4359;SDS011;2193;47.980;7.660;2022-11-20T02:37:07;9.17;;;6.37;;
4359;SDS011;2193;47.980;7.660;2022-11-20T02:39:32;8.63;;;6.60;;
4359;SDS011;2193;47.980;7.660;2022-11-20T02:41:57;8.87;;;6.00;;
4359;SDS011;2193;47.980;7.660;2022-11-20T02:44:25;11.85;;;6.80;;
4359;SDS011;2193;47.980;7.660;2022-11-20T02:46:50;9.20;;;6.43;;
4359;SDS011;2193;47.980;7.660;2022-11-20T02:49:16;11.87;;;6.40;;
4359;SDS011;2193;47.980;7.660;2022-11-20T02:51:41;11.50;;;6.50;;
4359;SDS011;2193;47.980;7.660;2022-11-20T02:54:06;10.43;;;6.53;;
4359;SDS011;2193;47.980;7.660;2022-11-20T02:56:32;10.57;;;5.87;;
4359;SDS011;2193;47.980;7.660;2022-11-20T02:58:57;13.00;;;6.90;;
4359;SDS011;2193;47.980;7.660;2022-11-20T03:01:22;10.17;;;6.03;;
4359;SDS011;2193;47.980;7.660;2022-11-20T03:03:47;12.30;;;6.53;;
4359;SDS011;2193;47.980;7.660;2022-11-20T03:06:17;11.65;;;6.22;;
4359;SDS011;2193;47.980;7.660;2022-11-20T03:08:42;13.07;;;6.70;;
4359;SDS011;2193;47.980;7.660;2022-11-20T03:11:08;9.50;;;6.20;;
4359;SDS011;2193;47.980;7.660;2022-11-20T03:13:33;7.23;;;5.97;;
4359;SDS011;2193;47.980;7.660;2022-11-20T03:16:04;8.67;;;5.90;;
4359;SDS011;2193;47.980;7.660;2022-11-20T03:18:30;9.27;;;6.18;;
4359;SDS011;2193;47.980;7.660;2022-11-20T03:20:58;10.30;;;6.30;;
4359;SDS011;2193;47.980;7.660;2022-11-20T03:23:24;11.55;;;5.90;;
4359;SDS011;2193;47.980;7.660;2022-11-20T03:25:49;9.97;;;6.83;;
4359;SDS011;2193;47.980;7.660;2022-11-20T03:28:14;7.83;;;5.87;;
4359;SDS011;2193;47.980;7.660;2022-11-20T03:30:39;8.70;;;6.50;;
4359;SDS011;2193;47.980;7.660;2022-11-20T03:33:05;11.20;;;6.25;;
4359;SDS011;2193;47.980;7.660;2022-11-20T03:35:31;8.70;;;5.77;;
4359;SDS011;2193;47.980;7.660;2022-11-20T03:37:57;9.77;;;6.67;;
4359;SDS011;2193;47.980;7.660;2022-11-20T03:40:22;10.02;;;6.18;;
4359;SDS011;2193;47.980;7.660;2022-11-20T03:42:47;9.37;;;6.13;;
4359;SDS011;2193;47.980;7.660;2022-11-20T03:45:13;9.67;;;5.73;;
4359;SDS011;2193;47.980;7.660;2022-11-20T03:47:39;8.27;;;5.93;;
4359;SDS011;2193;47.980;7.660;2022-11-20T03:50:04;9.70;;;5.77;;
4359;SDS011;2193;47.980;7.660;2022-11-20T03:52:29;8.17;;;5.60;;
4359;SDS011;2193;47.980;7.660;2022-11-20T03:54:55;7.93;;;5.60;;
4359;SDS011;2193;47.980;7.660;2022-11-20T03:57:20;7.20;;;5.27;;
4359;SDS011;2193;47.980;7.660;2022-11-20T03:59:45;7.40;;;5.10;;
4359;SDS011;2193;47.980;7.660;2022-11-20T04:02:10;9.97;;;5.33;;
4359;SDS011;2193;47.980;7.660;2022-11-20T04:04:35;9.47;;;5.50;;
4359;SDS011;2193;47.980;7.660;2022-11-20T04:07:01;8.10;;;4.80;;
4359;SDS011;2193;47.980;7.660;2022-11-20T04:09:26;8.33;;;5.23;;
4359;SDS011;2193;47.980;7.660;2022-11-20T04:11:51;6.30;;;5.10;;
4359;SDS011;2193;47.980;7.660;2022-11-20T04:14:17;9.97;;;5.47;;
4359;SDS011;2193;47.980;7.660;2022-11-20T04:16:42;6.40;;;4.53;;
4359;SDS011;2193;47.980;7.660;2022-11-20T04:19:10;6.60;;;5.13;;
4359;SDS011;2193;47.980;7.660;2022-11-20T04:21:35;6.05;;;5.35;;
4359;SDS011;2193;47.980;7.660;2022-11-20T04:24:01;7.00;;;4.93;;
4359;SDS011;2193;47.980;7.660;2022-11-20T04:26:27;7.97;;;5.23;;
4359;SDS011;2193;47.980;7.660;2022-11-20T04:28:53;8.10;;;5.50;;
4359;SDS011;2193;47.980;7.660;2022-11-20T04:31:24;6.63;;;5.37;;
4359;SDS011;2193;47.980;7.660;2022-11-20T04:33:50;11.98;;;5.45;;
4359;SDS011;2193;47.980;7.660;2022-11-20T04:36:19;8.20;;;4.83;;
4359;SDS011;2193;47.980;7.660;2022-11-20T04:38:45;6.70;;;4.80;;
4359;SDS011;2193;47.980;7.660;2022-11-20T04:41:13;5.93;;;4.40;;
4359;SDS011;2193;47.980;7.660;2022-11-20T04:43:39;6.30;;;4.82;;
4359;SDS011;2193;47.980;7.660;2022-11-20T04:46:04;5.80;;;5.00;;
4359;SDS011;2193;47.980;7.660;2022-11-20T04:48:30;7.93;;;4.30;;
4359;SDS011;2193;47.980;7.660;2022-11-20T04:50:56;8.07;;;4.93;;
4359;SDS011;2193;47.980;7.660;2022-11-20T04:53:22;10.07;;;5.50;;
4359;SDS011;2193;47.980;7.660;2022-11-20T04:55:47;6.10;;;4.17;;
4359;SDS011;2193;47.980;7.660;2022-11-20T04:58:12;5.97;;;4.47;;
4359;SDS011;2193;47.980;7.660;2022-11-20T05:00:37;8.87;;;5.27;;
4359;SDS011;2193;47.980;7.660;2022-11-20T05:03:03;6.67;;;4.70;;
4359;SDS011;2193;47.980;7.660;2022-11-20T05:05:28;5.27;;;4.77;;
4359;SDS011;2193;47.980;7.660;2022-11-20T05:07:55;6.03;;;5.00;;
4359;SDS011;2193;47.980;7.660;2022-11-20T05:10:20;5.60;;;4.70;;
4359;SDS011;2193;47.980;7.660;2022-11-20T05:12:46;8.30;;;5.03;;
4359;SDS011;2193;47.980;7.660;2022-11-20T05:15:11;7.60;;;5.37;;
4359;SDS011;2193;47.980;7.660;2022-11-20T05:17:36;5.90;;;4.83;;
4359;SDS011;2193;47.980;7.660;2022-11-20T05:20:01;6.73;;;5.37;;
4359;SDS011;2193;47.980;7.660;2022-11-20T05:22:26;9.00;;;5.67;;
4359;SDS011;2193;47.980;7.660;2022-11-20T05:24:52;8.73;;;5.83;;
4359;SDS011;2193;47.980;7.660;2022-11-20T05:27:17;7.70;;;6.10;;
4359;SDS011;2193;47.980;7.660;2022-11-20T05:29:42;14.03;;;6.20;;
4359;SDS011;2193;47.980;7.660;2022-11-20T05:32:07;8.33;;;5.50;;
4359;SDS011;2193;47.980;7.660;2022-11-20T05:34:34;6.50;;;5.10;;
4359;SDS011;2193;47.980;7.660;2022-11-20T05:36:59;8.63;;;5.33;;
4359;SDS011;2193;47.980;7.660;2022-11-20T05:39:25;6.73;;;5.20;;
4359;SDS011;2193;47.980;7.660;2022-11-20T05:41:50;7.60;;;4.93;;
4359;SDS011;2193;47.980;7.660;2022-11-20T05:44:35;5.18;;;4.68;;
4359;SDS011;2193;47.980;7.660;2022-11-20T05:47:00;8.70;;;4.67;;
4359;SDS011;2193;47.980;7.660;2022-11-20T05:49:25;6.07;;;4.50;;
4359;SDS011;2193;47.980;7.660;2022-11-20T05:51:50;6.47;;;4.90;;
4359;SDS011;2193;47.980;7.660;2022-11-20T05:54:16;5.27;;;3.80;;
4359;SDS011;2193;47.980;7.660;2022-11-20T05:56:41;7.50;;;4.10;;
4359;SDS011;2193;47.980;7.660;2022-11-20T05:59:07;8.17;;;3.60;;
4359;SDS011;2193;47.980;7.660;2022-11-20T06:01:32;5.30;;;3.40;;
4359;SDS011;2193;47.980;7.660;2022-11-20T06:03:57;4.93;;;4.13;;
4359;SDS011;2193;47.980;7.660;2022-11-20T06:06:22;7.73;;;3.67;;
4359;SDS011;2193;47.980;7.660;2022-11-20T06:08:48;7.30;;;4.10;;
4359;SDS011;2193;47.980;7.660;2022-11-20T06:11:13;5.13;;;4.00;;
4359;SDS011;2193;47.980;7.660;2022-11-20T06:13:39;5.00;;;3.90;;
4359;SDS011;2193;47.980;7.660;2022-11-20T06:16:04;10.73;;;3.90;;
4359;SDS011;2193;47.980;7.660;2022-11-20T06:18:30;5.40;;;3.47;;
4359;SDS011;2193;47.980;7.660;2022-11-20T06:20:59;5.93;;;3.77;;
4359;SDS011;2193;47.980;7.660;2022-11-20T06:23:24;4.10;;;3.70;;
4359;SDS011;2193;47.980;7.660;2022-11-20T06:25:49;4.30;;;3.90;;
4359;SDS011;2193;47.980;7.660;2022-11-20T06:28:15;5.73;;;3.67;;
4359;SDS011;2193;47.980;7.660;2022-11-20T06:30:44;4.93;;;4.10;;
4359;SDS011;2193;47.980;7.660;2022-11-20T06:33:09;4.97;;;3.25;;
4359;SDS011;2193;47.980;7.660;2022-11-20T06:35:34;3.60;;;3.20;;
4359;SDS011;2193;47.980;7.660;2022-11-20T06:37:59;7.00;;;4.03;;
4359;SDS011;2193;47.980;7.660;2022-11-20T06:40:25;5.53;;;3.70;;
4359;SDS011;2193;47.980;7.660;2022-11-20T06:42:50;4.10;;;3.50;;
4359;SDS011;2193;47.980;7.660;2022-11-20T06:45:15;4.37;;;3.70;;
4359;SDS011;2193;47.980;7.660;2022-11-20T06:47:40;6.73;;;4.07;;
4359;SDS011;2193;47.980;7.660;2022-11-20T06:50:05;6.07;;;3.43;;
4359;SDS011;2193;47.980;7.660;2022-11-20T06:52:31;6.50;;;3.77;;
4359;SDS011;2193;47.980;7.660;2022-11-20T06:54:56;4.37;;;3.73;;
4359;SDS011;2193;47.980;7.660;2022-11-20T06:57:21;4.07;;;3.17;;
4359;SDS011;2193;47.980;7.660;2022-11-20T06:59:46;7.83;;;3.67;;
4359;SDS011;2193;47.980;7.660;2022-11-20T07:02:12;6.27;;;3.67;;
4359;SDS011;2193;47.980;7.660;2022-11-20T07:04:37;4.33;;;3.03;;
4359;SDS011;2193;47.980;7.660;2022-11-20T07:07:03;4.03;;;3.23;;
4359;SDS011;2193;47.980;7.660;2022-11-20T07:09:28;4.73;;;3.60;;
4359;SDS011;2193;47.980;7.660;2022-11-20T07:11:53;5.20;;;3.50;;
4359;SDS011;2193;47.980;7.660;2022-11-20T07:14:18;3.87;;;3.20;;
4359;SDS011;2193;47.980;7.660;2022-11-20T07:16:43;3.47;;;3.17;;
4359;SDS011;2193;47.980;7.660;2022-11-20T07:19:09;4.53;;;3.10;;
4359;SDS011;2193;47.980;7.660;2022-11-20T07:21:34;3.93;;;3.50;;
4359;SDS011;2193;47.980;7.660;2022-11-20T07:23:59;8.20;;;3.30;;
4359;SDS011;2193;47.980;7.660;2022-11-20T07:26:24;3.30;;;2.80;;
4359;SDS011;2193;47.980;7.660;2022-11-20T07:28:49;3.80;;;2.90;;
4359;SDS011;2193;47.980;7.660;2022-11-20T07:31:14;3.33;;;2.63;;
4359;SDS011;2193;47.980;7.660;2022-11-20T07:33:40;4.47;;;2.63;;
4359;SDS011;2193;47.980;7.660;2022-11-20T07:36:05;3.10;;;2.90;;
4359;SDS011;2193;47.980;7.660;2022-11-20T07:38:30;4.40;;;3.20;;
4359;SDS011;2193;47.980;7.660;2022-11-20T07:40:56;3.37;;;3.07;;
4359;SDS011;2193;47.980;7.660;2022-11-20T07:43:22;3.25;;;2.95;;
4359;SDS011;2193;47.980;7.660;2022-11-20T07:45:47;2.90;;;2.70;;
4359;SDS011;2193;47.980;7.660;2022-11-20T07:48:12;4.73;;;3.00;;
4359;SDS011;2193;47.980;7.660;2022-11-20T07:50:37;5.03;;;3.17;;
4359;SDS011;2193;47.980;7.660;2022-11-20T07:53:03;3.30;;;2.50;;
4359;SDS011;2193;47.980;7.660;2022-11-20T07:55:29;6.55;;;3.20;;
4359;SDS011;2193;47.980;7.660;2022-11-20T07:57:55;5.10;;;3.33;;
4359;SDS011;2193;47.980;7.660;2022-11-20T08:00:21;3.00;;;2.70;;
4359;SDS011;2193;47.980;7.660;2022-11-20T08:02:46;2.90;;;2.70;;
4359;SDS011;2193;47.980;7.660;2022-11-20T08:05:11;3.27;;;2.97;;
4359;SDS011;2193;47.980;7.660;2022-11-20T08:07:37;3.87;;;3.23;;
4359;SDS011;2193;47.980;7.660;2022-11-20T08:10:02;3.92;;;3.10;;
4359;SDS011;2193;47.980;7.660;2022-11-20T08:12:28;4.67;;;3.10;;
4359;SDS011;2193;47.980;7.660;2022-11-20T08:15:12;4.30;;;3.17;;
4359;SDS011;2193;47.980;7.660;2022-11-20T08:17:37;4.50;;;3.00;;
4359;SDS011;2193;47.980;7.660;2022-11-20T08:20:02;4.40;;;3.57;;
4359;SDS011;2193;47.980;7.660;2022-11-20T08:22:28;3.93;;;3.13;;
4359;SDS011;2193;47.980;7.660;2022-11-20T08:24:53;5.60;;;3.40;;
4359;SDS011;2193;47.980;7.660;2022-11-20T08:27:18;3.60;;;3.30;;
4359;SDS011;2193;47.980;7.660;2022-11-20T08:29:43;4.40;;;3.73;;
4359;SDS011;2193;47.980;7.660;2022-11-20T08:32:09;7.43;;;3.57;;
4359;SDS011;2193;47.980;7.660;2022-11-20T08:34:34;3.90;;;3.50;;
4359;SDS011;2193;47.980;7.660;2022-11-20T08:37:01;5.10;;;3.33;;
4359;SDS011;2193;47.980;7.660;2022-11-20T08:39:26;4.97;;;3.25;;
4359;SDS011;2193;47.980;7.660;2022-11-20T08:41:51;5.97;;;3.47;;
4359;SDS011;2193;47.980;7.660;2022-11-20T08:44:16;5.00;;;3.10;;
4359;SDS011;2193;47.980;7.660;2022-11-20T08:46:42;3.67;;;3.37;;
4359;SDS011;2193;47.980;7.660;2022-11-20T08:49:09;4.18;;;3.33;;
4359;SDS011;2193;47.980;7.660;2022-11-20T08:51:35;4.45;;;3.50;;
4359;SDS011;2193;47.980;7.660;2022-11-20T08:54:01;6.13;;;3.27;;
4359;SDS011;2193;47.980;7.660;2022-11-20T08:56:26;6.93;;;3.20;;
4359;SDS011;2193;47.980;7.660;2022-11-20T08:58:51;5.83;;;3.77;;
4359;SDS011;2193;47.980;7.660;2022-11-20T09:01:20;3.90;;;3.50;;
4359;SDS011;2193;47.980;7.660;2022-11-20T09:03:45;3.63;;;3.25;;
4359;SDS011;2193;47.980;7.660;2022-11-20T09:06:11;4.23;;;3.50;;
4359;SDS011;2193;47.980;7.660;2022-11-20T09:08:36;6.13;;;3.70;;
4359;SDS011;2193;47.980;7.660;2022-11-20T09:11:02;6.23;;;3.43;;
4359;SDS011;2193;47.980;7.660;2022-11-20T09:13:27;4.53;;;3.30;;
4359;SDS011;2193;47.980;7.660;2022-11-20T09:15:56;6.50;;;4.10;;
4359;SDS011;2193;47.980;7.660;2022-11-20T09:18:22;3.35;;;3.05;;
4359;SDS011;2193;47.980;7.660;2022-11-20T09:20:47;4.87;;;3.43;;
4359;SDS011;2193;47.980;7.660;2022-11-20T09:23:12;3.70;;;3.23;;
4359;SDS011;2193;47.980;7.660;2022-11-20T09:25:38;8.13;;;3.03;;
4359;SDS011;2193;47.980;7.660;2022-11-20T09:28:03;4.17;;;3.00;;
4359;SDS011;2193;47.980;7.660;2022-11-20T09:30:28;4.33;;;3.20;;
4359;SDS011;2193;47.980;7.660;2022-11-20T09:32:53;5.80;;;2.90;;
4359;SDS011;2193;47.980;7.660;2022-11-20T09:35:19;3.27;;;2.97;;
4359;SDS011;2193;47.980;7.660;2022-11-20T09:37:44;4.00;;;2.87;;
4359;SDS011;2193;47.980;7.660;2022-11-20T09:40:18;7.20;;;3.97;;
4359;SDS011;2193;47.980;7.660;2022-11-20T09:48:18;7.00;;;4.00;;
4359;SDS011;2193;47.980;7.660;2022-11-20T09:50:46;11.02;;;3.50;;
4359;SDS011;2193;47.980;7.660;2022-11-20T09:55:57;2.75;;;2.50;;
4359;SDS011;2193;47.980;7.660;2022-11-20T09:58:27;3.22;;;2.30;;
4359;SDS011;2193;47.980;7.660;2022-11-20T10:00:55;3.17;;;2.70;;
4359;SDS011;2193;47.980;7.660;2022-11-20T10:03:29;4.32;;;2.20;;
4359;SDS011;2193;47.980;7.660;2022-11-20T10:05:59;6.53;;;2.70;;
4359;SDS011;2193;47.980;7.660;2022-11-20T10:08:28;2.37;;;2.20;;
4359;SDS011;2193;47.980;7.660;2022-11-20T10:26:00;4.15;;;3.60;;
4359;SDS011;2193;47.980;7.660;2022-11-20T10:33:54;4.45;;;3.33;;
4359;SDS011;2193;47.980;7.660;2022-11-20T10:36:22;6.93;;;3.50;;
4359;SDS011;2193;47.980;7.660;2022-11-20T10:38:50;3.03;;;2.73;;
4359;SDS011;2193;47.980;7.660;2022-11-20T10:41:23;7.10;;;3.30;;
4359;SDS011;2193;47.980;7.660;2022-11-20T10:43:52;7.17;;;3.37;;
4359;SDS011;2193;47.980;7.660;2022-11-20T10:46:19;5.37;;;3.03;;
4359;SDS011;2193;47.980;7.660;2022-11-20T10:48:47;6.53;;;2.90;;
4359;SDS011;2193;47.980;7.660;2022-11-20T10:58:40;11.70;;;2.40;;
4359;SDS011;2193;47.980;7.660;2022-11-20T11:01:18;3.20;;;2.63;;
4359;SDS011;2193;47.980;7.660;2022-11-20T11:03:43;6.00;;;3.30;;
4359;SDS011;2193;47.980;7.660;2022-11-20T11:08:36;5.20;;;2.90;;
4359;SDS011;2193;47.980;7.660;2022-11-20T11:11:18;3.50;;;2.47;;
4359;SDS011;2193;47.980;7.660;2022-11-20T11:13:45;2.80;;;2.07;;
4359;SDS011;2193;47.980;7.660;2022-11-20T11:16:48;4.17;;;1.97;;
4359;SDS011;2193;47.980;7.660;2022-11-20T11:19:05;2.40;;;1.73;;
4359;SDS011;2193;47.980;7.660;2022-11-20T11:21:31;2.53;;;1.70;;
4359;SDS011;2193;47.980;7.660;2022-11-20T11:23:59;2.60;;;1.90;;
4359;SDS011;2193;47.980;7.660;2022-11-20T11:26:25;3.13;;;2.10;;
4359;SDS011;2193;47.980;7.660;2022-11-20T11:31:22;4.20;;;2.13;;
4359;SDS011;2193;47.980;7.660;2022-11-20T11:33:48;3.10;;;2.20;;
4359;SDS011;2193;47.980;7.660;2022-11-20T11:36:21;2.70;;;2.03;;
4359;SDS011;2193;47.980;7.660;2022-11-20T11:38:48;4.90;;;3.23;;
4359;SDS011;2193;47.980;7.660;2022-11-20T11:41:16;2.63;;;1.90;;
4359;SDS011;2193;47.980;7.660;2022-11-20T11:43:49;2.50;;;2.00;;
4359;SDS011;2193;47.980;7.660;2022-11-20T11:46:34;2.47;;;2.00;;
4359;SDS011;2193;47.980;7.660;2022-11-20T11:49:13;2.70;;;1.87;;
4359;SDS011;2193;47.980;7.660;2022-11-20T11:51:45;5.33;;;1.73;;
4359;SDS011;2193;47.980;7.660;2022-11-20T11:54:16;1.90;;;1.63;;
4359;SDS011;2193;47.980;7.660;2022-11-20T11:56:44;2.13;;;1.43;;
4359;SDS011;2193;47.980;7.660;2022-11-20T11:59:11;2.13;;;1.77;;
4359;SDS011;2193;47.980;7.660;2022-11-20T12:04:20;2.10;;;1.40;;
4359;SDS011;2193;47.980;7.660;2022-11-20T12:06:51;2.83;;;1.00;;
4359;SDS011;2193;47.980;7.660;2022-11-20T12:09:17;3.27;;;1.00;;
4359;SDS011;2193;47.980;7.660;2022-11-20T12:16:54;1.70;;;1.23;;
4359;SDS011;2193;47.980;7.660;2022-11-20T12:19:22;1.53;;;1.30;;
4359;SDS011;2193;47.980;7.660;2022-11-20T12:21:56;4.00;;;1.60;;
4359;SDS011;2193;47.980;7.660;2022-11-20T12:24:32;2.30;;;1.53;;
4359;SDS011;2193;47.980;7.660;2022-11-20T12:34:51;6.00;;;1.83;;
4359;SDS011;2193;47.980;7.660;2022-11-20T12:37:33;2.30;;;1.70;;
4359;SDS011;2193;47.980;7.660;2022-11-20T12:40:02;2.73;;;1.70;;
4359;SDS011;2193;47.980;7.660;2022-11-20T12:42:37;3.17;;;1.77;;
4359;SDS011;2193;47.980;7.660;2022-11-20T12:45:36;2.03;;;1.83;;
4359;SDS011;2193;47.980;7.660;2022-11-20T12:53:22;1.73;;;1.63;;
4359;SDS011;2193;47.980;7.660;2022-11-20T12:55:54;2.10;;;1.90;;
4359;SDS011;2193;47.980;7.660;2022-11-20T13:04:19;4.70;;;2.00;;
4359;SDS011;2193;47.980;7.660;2022-11-20T13:06:50;2.67;;;1.90;;
4359;SDS011;2193;47.980;7.660;2022-11-20T13:09:16;3.90;;;1.73;;
4359;SDS011;2193;47.980;7.660;2022-11-20T13:16:53;2.33;;;1.37;;
4359;SDS011;2193;47.980;7.660;2022-11-20T13:19:20;1.90;;;1.20;;
4359;SDS011;2193;47.980;7.660;2022-11-20T13:21:47;12.40;;;4.90;;
4359;SDS011;2193;47.980;7.660;2022-11-20T13:26:46;39.97;;;16.20;;
4359;SDS011;2193;47.980;7.660;2022-11-20T13:29:12;11.70;;;5.93;;
4359;SDS011;2193;47.980;7.660;2022-11-20T13:31:42;5.30;;;2.70;;
4359;SDS011;2193;47.980;7.660;2022-11-20T13:34:09;2.80;;;1.77;;
4359;SDS011;2193;47.980;7.660;2022-11-20T13:36:37;8.50;;;3.80;;
4359;SDS011;2193;47.980;7.660;2022-11-20T13:39:23;20.97;;;8.70;;
4359;SDS011;2193;47.980;7.660;2022-11-20T13:41:53;10.90;;;5.00;;
4359;SDS011;2193;47.980;7.660;2022-11-20T13:46:50;5.53;;;3.13;;
4359;SDS011;2193;47.980;7.660;2022-11-20T13:49:21;4.90;;;2.27;;
4359;SDS011;2193;47.980;7.660;2022-11-20T13:51:51;6.43;;;2.97;;
4359;SDS011;2193;47.980;7.660;2022-11-20T13:59:57;3.90;;;1.80;;
4359;SDS011;2193;47.980;7.660;2022-11-20T14:02:23;4.50;;;1.87;;
4359;SDS011;2193;47.980;7.660;2022-11-20T14:04:51;4.83;;;1.70;;
4359;SDS011;2193;47.980;7.660;2022-11-20T14:07:17;2.97;;;1.53;;
4359;SDS011;2193;47.980;7.660;2022-11-20T14:09:50;2.73;;;1.67;;
4359;SDS011;2193;47.980;7.660;2022-11-20T14:12:17;5.40;;;3.20;;
4359;SDS011;2193;47.980;7.660;2022-11-20T14:14:52;11.53;;;4.23;;
4359;SDS011;2193;47.980;7.660;2022-11-20T14:17:22;19.17;;;6.53;;
4359;SDS011;2193;47.980;7.660;2022-11-20T14:19:48;4.50;;;3.13;;
4359;SDS011;2193;47.980;7.660;2022-11-20T14:24:39;8.57;;;3.00;;
4359;SDS011;2193;47.980;7.660;2022-11-20T14:27:04;15.70;;;4.70;;
4359;SDS011;2193;47.980;7.660;2022-11-20T14:29:35;5.90;;;2.80;;
4359;SDS011;2193;47.980;7.660;2022-11-20T14:32:01;3.30;;;2.00;;
4359;SDS011;2193;47.980;7.660;2022-11-20T14:34:28;3.17;;;1.88;;
4359;SDS011;2193;47.980;7.660;2022-11-20T14:37:00;3.70;;;1.97;;
4359;SDS011;2193;47.980;7.660;2022-11-20T14:39:29;10.27;;;3.30;;
4359;SDS011;2193;47.980;7.660;2022-11-20T14:41:55;6.43;;;2.50;;
4359;SDS011;2193;47.980;7.660;2022-11-20T14:44:21;5.93;;;3.00;;
4359;SDS011;2193;47.980;7.660;2022-11-20T14:46:48;3.00;;;2.57;;
4359;SDS011;2193;47.980;7.660;2022-11-20T14:49:13;7.40;;;2.60;;
4359;SDS011;2193;47.980;7.660;2022-11-20T14:51:39;6.53;;;2.40;;
4359;SDS011;2193;47.980;7.660;2022-11-20T14:54:10;2.90;;;2.37;;
4359;SDS011;2193;47.980;7.660;2022-11-20T14:56:35;28.40;;;12.83;;
4359;SDS011;2193;47.980;7.660;2022-11-20T14:59:01;59.17;;;20.40;;
4359;SDS011;2193;47.980;7.660;2022-11-20T15:01:27;29.13;;;12.77;;
4359;SDS011;2193;47.980;7.660;2022-11-20T15:04:00;14.13;;;7.00;;
4359;SDS011;2193;47.980;7.660;2022-11-20T15:06:25;24.00;;;12.97;;
4359;SDS011;2193;47.980;7.660;2022-11-20T15:08:51;12.33;;;7.40;;
4359;SDS011;2193;47.980;7.660;2022-11-20T15:11:20;8.03;;;4.47;;
4359;SDS011;2193;47.980;7.660;2022-11-20T15:13:48;7.57;;;5.13;;
4359;SDS011;2193;47.980;7.660;2022-11-20T15:16:20;4.70;;;3.33;;
4359;SDS011;2193;47.980;7.660;2022-11-20T15:18:45;5.70;;;4.40;;
4359;SDS011;2193;47.980;7.660;2022-11-20T15:21:12;3.77;;;2.83;;
4359;SDS011;2193;47.980;7.660;2022-11-20T15:23:38;5.43;;;3.20;;
4359;SDS011;2193;47.980;7.660;2022-11-20T15:26:10;2.50;;;2.13;;
4359;SDS011;2193;47.980;7.660;2022-11-20T15:28:36;4.97;;;2.20;;
4359;SDS011;2193;47.980;7.660;2022-11-20T15:31:02;2.80;;;1.97;;
4359;SDS011;2193;47.980;7.660;2022-11-20T15:33:28;2.23;;;1.70;;
4359;SDS011;2193;47.980;7.660;2022-11-20T15:35:53;3.93;;;2.43;;
4359;SDS011;2193;47.980;7.660;2022-11-20T15:38:18;5.57;;;3.30;;
4359;SDS011;2193;47.980;7.660;2022-11-20T15:40:43;4.97;;;3.10;;
4359;SDS011;2193;47.980;7.660;2022-11-20T15:43:09;2.70;;;2.50;;
4359;SDS011;2193;47.980;7.660;2022-11-20T15:47:59;3.03;;;2.57;;
4359;SDS011;2193;47.980;7.660;2022-11-20T15:50:36;2.27;;;2.00;;
4359;SDS011;2193;47.980;7.660;2022-11-20T15:53:02;4.72;;;2.72;;
4359;SDS011;2193;47.980;7.660;2022-11-20T15:55:27;2.87;;;1.67;;
4359;SDS011;2193;47.980;7.660;2022-11-20T15:57:52;5.33;;;3.00;;
4359;SDS011;2193;47.980;7.660;2022-11-20T16:00:17;6.23;;;2.30;;
4359;SDS011;2193;47.980;7.660;2022-11-20T16:02:43;6.47;;;3.60;;
4359;SDS011;2193;47.980;7.660;2022-11-20T16:05:11;8.93;;;2.60;;
4359;SDS011;2193;47.980;7.660;2022-11-20T16:07:37;5.45;;;4.18;;
4359;SDS011;2193;47.980;7.660;2022-11-20T16:10:03;8.33;;;4.40;;
4359;SDS011;2193;47.980;7.660;2022-11-20T16:12:28;45.17;;;21.00;;
4359;SDS011;2193;47.980;7.660;2022-11-20T16:15:11;12.48;;;6.00;;
4359;SDS011;2193;47.980;7.660;2022-11-20T16:17:55;6.43;;;4.28;;
4359;SDS011;2193;47.980;7.660;2022-11-20T16:20:21;13.63;;;7.50;;
4359;SDS011;2193;47.980;7.660;2022-11-20T16:22:46;15.10;;;9.73;;
4359;SDS011;2193;47.980;7.660;2022-11-20T16:25:11;10.33;;;5.83;;
4359;SDS011;2193;47.980;7.660;2022-11-20T16:27:36;13.27;;;8.97;;
4359;SDS011;2193;47.980;7.660;2022-11-20T16:30:01;26.53;;;15.07;;
4359;SDS011;2193;47.980;7.660;2022-11-20T16:32:27;16.90;;;10.30;;
4359;SDS011;2193;47.980;7.660;2022-11-20T16:34:52;10.40;;;5.90;;
4359;SDS011;2193;47.980;7.660;2022-11-20T16:37:17;23.73;;;8.47;;
4359;SDS011;2193;47.980;7.660;2022-11-20T16:39:42;4.83;;;4.10;;
4359;SDS011;2193;47.980;7.660;2022-11-20T16:42:08;3.80;;;2.90;;
4359;SDS011;2193;47.980;7.660;2022-11-20T16:44:33;3.00;;;2.50;;
4359;SDS011;2193;47.980;7.660;2022-11-20T16:46:58;3.10;;;2.80;;